createdAt,value
2023-03-30T00:03:55.734Z,3.43
2023-03-30T00:08:59.900Z,3.43
2023-03-30T00:14:02.024Z,3.67
2023-03-30T00:19:04.365Z,3.20
2023-03-30T00:24:08.072Z,3.50
2023-03-30T00:29:10.466Z,3.77
2023-03-30T00:34:12.183Z,3.30
2023-03-30T00:39:16.103Z,3.40
2023-03-30T00:44:55.585Z,3.07
2023-03-30T00:49:59.036Z,3.17
2023-03-30T00:55:02.595Z,3.20
2023-03-30T01:00:07.445Z,2.90
2023-03-30T01:05:10.327Z,2.63
2023-03-30T01:10:13.943Z,2.77
2023-03-30T01:15:17.104Z,2.57
2023-03-30T01:20:54.325Z,2.90
2023-03-30T01:26:27.476Z,3.10
2023-03-30T01:31:54.108Z,3.10
2023-03-30T01:37:23.085Z,3.00
2023-03-30T01:42:36.340Z,3.17
2023-03-30T01:47:41.671Z,2.93
2023-03-30T01:52:51.870Z,3.93
2023-03-30T01:58:01.600Z,3.27
2023-03-30T02:03:07.641Z,3.17
2023-03-30T02:08:13.562Z,3.50
2023-03-30T02:13:19.083Z,3.27
2023-03-30T02:18:21.229Z,3.33
2023-03-30T02:23:25.599Z,3.17
2023-03-30T02:28:29.238Z,3.43
2023-03-30T02:33:41.683Z,4.17
2023-03-30T02:39:17.382Z,3.43
2023-03-30T02:44:31.761Z,3.73
2023-03-30T02:49:49.885Z,3.87
2023-03-30T02:54:57.501Z,3.17
2023-03-30T03:00:05.152Z,3.87
2023-03-30T03:05:11.882Z,3.13
2023-03-30T03:10:14.448Z,3.40
2023-03-30T03:15:17.980Z,3.67
2023-03-30T03:20:20.052Z,3.70
2023-03-30T03:25:21.996Z,3.70
2023-03-30T03:30:25.500Z,3.47
2023-03-30T03:35:27.407Z,3.03
2023-03-30T03:40:29.475Z,2.70
2023-03-30T03:45:33.086Z,3.43
2023-03-30T03:50:35.173Z,3.10
2023-03-30T03:55:36.906Z,3.10
2023-03-30T04:00:40.606Z,3.30
2023-03-30T04:05:42.950Z,2.93
2023-03-30T04:10:45.076Z,3.37
2023-03-30T04:15:48.194Z,3.07
2023-03-30T04:20:49.866Z,3.17
2023-03-30T04:25:52.031Z,3.27
2023-03-30T04:30:59.244Z,2.83
2023-03-30T04:36:02.184Z,3.40
2023-03-30T04:41:04.454Z,2.57
2023-03-30T04:46:08.199Z,2.90
2023-03-30T04:51:10.651Z,3.53
2023-03-30T04:56:12.554Z,3.33
2023-03-30T05:01:18.427Z,3.57
2023-03-30T05:06:20.213Z,3.47
2023-03-30T05:11:25.376Z,2.93
2023-03-30T05:16:28.833Z,2.90
2023-03-30T05:21:30.909Z,3.30
2023-03-30T05:26:33.134Z,3.33
2023-03-30T05:31:36.862Z,3.60
2023-03-30T05:36:39.288Z,3.50
2023-03-30T05:41:41.363Z,3.30
2023-03-30T05:46:45.029Z,3.40
2023-03-30T05:51:47.893Z,3.77
2023-03-30T05:56:52.327Z,4.13
2023-03-30T06:01:55.834Z,3.67
2023-03-30T06:06:57.510Z,3.77
2023-03-30T06:11:59.306Z,3.47
2023-03-30T06:17:02.624Z,3.30
2023-03-30T06:22:04.945Z,3.43
2023-03-30T06:27:06.851Z,3.40
2023-03-30T06:32:10.557Z,3.83
2023-03-30T06:37:13.245Z,3.33
2023-03-30T06:42:15.618Z,2.97
2023-03-30T06:47:19.165Z,3.20
2023-03-30T06:52:20.799Z,3.20
2023-03-30T06:57:22.826Z,2.93
2023-03-30T07:02:26.838Z,2.73
2023-03-30T07:07:28.955Z,3.23
2023-03-30T07:12:30.692Z,3.00
2023-03-30T07:17:34.566Z,2.43
2023-03-30T07:22:37.217Z,3.10
2023-03-30T07:27:39.089Z,2.90
2023-03-30T07:32:42.260Z,2.70
2023-03-30T07:37:44.370Z,2.50
2023-03-30T07:42:46.415Z,2.40
2023-03-30T07:47:49.573Z,2.10
2023-03-30T07:52:51.415Z,2.00
2023-03-30T07:57:53.052Z,1.90
2023-03-30T08:02:56.830Z,1.57
2023-03-30T08:07:59.550Z,2.00
2023-03-30T08:13:03.094Z,1.77
2023-03-30T08:18:09.105Z,1.67
2023-03-30T08:23:12.538Z,1.50
2023-03-30T08:28:15.189Z,1.73
2023-03-30T08:33:20.148Z,1.67
2023-03-30T08:38:22.311Z,1.50
2023-03-30T08:43:41.965Z,1.80
2023-03-30T08:48:47.959Z,2.57
2023-03-30T08:53:58.256Z,2.03
2023-03-30T08:59:17.456Z,4.13
2023-03-30T09:04:29.830Z,2.07
2023-03-30T09:09:37.557Z,3.77
2023-03-30T09:14:43.378Z,2.33
2023-03-30T09:19:55.142Z,4.17
2023-03-30T09:24:58.056Z,2.37
2023-03-30T09:30:09.930Z,4.00
2023-03-30T09:35:15.311Z,2.33
2023-03-30T09:40:26.432Z,2.27
2023-03-30T09:45:33.285Z,2.37
2023-03-30T09:50:46.256Z,2.33
2023-03-30T09:55:59.363Z,1.80
2023-03-30T10:01:04.552Z,1.80
2023-03-30T10:06:13.431Z,1.40
2023-03-30T10:11:20.473Z,1.60
2023-03-30T10:16:26.435Z,1.73
2023-03-30T10:21:36.416Z,2.20
2023-03-30T10:26:38.639Z,2.07
2023-03-30T10:31:45.416Z,1.73
2023-03-30T10:36:53.990Z,1.90
2023-03-30T10:42:00.184Z,1.63
2023-03-30T10:47:16.836Z,1.60
2023-03-30T10:52:27.169Z,2.40
2023-03-30T10:57:39.187Z,1.77
2023-03-30T11:02:54.836Z,1.73
2023-03-30T11:08:02.015Z,1.50
2023-03-30T11:13:07.388Z,1.43
2023-03-30T11:18:16.265Z,1.70
2023-03-30T11:23:29.868Z,1.87
2023-03-30T11:28:50.026Z,2.23
2023-03-30T11:33:58.665Z,1.90
2023-03-30T11:39:05.321Z,1.93
2023-03-30T11:44:09.726Z,1.40
2023-03-30T11:49:22.596Z,1.97
2023-03-30T11:55:15.057Z,1.47
2023-03-30T12:00:28.147Z,2.37
2023-03-30T12:05:35.487Z,1.53
2023-03-30T12:10:41.298Z,1.87
2023-03-30T12:15:50.967Z,2.00
2023-03-30T12:20:57.168Z,1.40
2023-03-30T12:26:08.593Z,1.73
2023-03-30T12:31:12.110Z,1.63
2023-03-30T12:36:30.893Z,1.43
2023-03-30T12:41:40.954Z,1.60
2023-03-30T12:47:00.896Z,1.97
2023-03-30T12:52:09.989Z,1.50
2023-03-30T12:57:23.363Z,1.93
2023-03-30T13:02:56.631Z,2.07
2023-03-30T13:08:03.420Z,1.73
2023-03-30T13:13:05.857Z,1.43
2023-03-30T13:18:39.956Z,1.63
2023-03-30T13:23:44.632Z,1.67
2023-03-30T13:28:59.516Z,1.63
2023-03-30T13:34:13.968Z,1.60
2023-03-30T13:39:23.234Z,1.20
2023-03-30T13:44:48.074Z,1.20
2023-03-30T13:49:58.532Z,1.07
2023-03-30T13:55:04.900Z,1.00
2023-03-30T14:00:20.314Z,1.47
2023-03-30T14:05:24.081Z,1.50
2023-03-30T14:10:27.407Z,1.33
2023-03-30T14:15:35.523Z,1.73
2023-03-30T14:20:47.157Z,1.93
2023-03-30T14:25:54.252Z,1.97
2023-03-30T14:30:58.724Z,2.70
2023-03-30T14:36:02.820Z,2.00
2023-03-30T14:41:08.839Z,2.23
2023-03-30T14:46:12.197Z,2.20
2023-03-30T14:51:23.803Z,3.50
2023-03-30T14:56:27.368Z,1.83
2023-03-30T15:01:31.543Z,1.60
2023-03-30T15:06:34.048Z,2.20
2023-03-30T15:11:40.843Z,1.90
2023-03-30T15:16:43.063Z,2.30
2023-03-30T15:21:44.899Z,2.30
2023-03-30T15:26:49.992Z,2.33
2023-03-30T15:31:59.574Z,2.60
2023-03-30T15:37:03.744Z,3.13
2023-03-30T15:42:07.473Z,3.43
2023-03-30T15:47:13.896Z,2.47
2023-03-30T15:52:21.899Z,2.67
2023-03-30T15:57:29.447Z,2.47
2023-03-30T16:02:38.591Z,2.73
2023-03-30T16:07:40.713Z,2.67
2023-03-30T16:12:45.673Z,3.13
2023-03-30T16:17:47.981Z,2.17
2023-03-30T16:22:50.648Z,2.20
2023-03-30T16:27:54.223Z,2.43
2023-03-30T16:32:56.734Z,2.73
2023-03-30T16:37:59.041Z,2.30
2023-03-30T16:43:03.129Z,2.40
2023-03-30T16:48:05.288Z,2.20
2023-03-30T16:53:09.164Z,2.90
2023-03-30T16:58:14.918Z,2.47
2023-03-30T17:03:18.158Z,2.30
2023-03-30T17:08:22.518Z,2.30
2023-03-30T17:13:25.648Z,2.60
2023-03-30T17:18:27.964Z,2.30
2023-03-30T17:23:31.873Z,2.40
2023-03-30T17:28:36.148Z,2.97
2023-03-30T17:33:38.668Z,2.77
2023-03-30T17:38:44.016Z,2.63
2023-03-30T17:43:48.147Z,3.23
2023-03-30T17:48:50.922Z,3.83
2023-03-30T17:53:53.169Z,3.20
2023-03-30T17:58:56.607Z,3.43
2023-03-30T18:04:00.051Z,2.93
2023-03-30T18:09:02.222Z,3.17
2023-03-30T18:14:05.476Z,2.93
2023-03-30T18:19:09.471Z,3.33
2023-03-30T18:24:11.603Z,2.77
2023-03-30T18:29:19.135Z,2.63
2023-03-30T18:34:21.339Z,3.50
2023-03-30T18:39:23.383Z,2.77
2023-03-30T18:44:26.873Z,2.63
2023-03-30T18:49:28.727Z,3.10
2023-03-30T18:54:36.422Z,3.70
2023-03-30T18:59:41.112Z,3.17
2023-03-30T19:04:43.368Z,4.10
2023-03-30T19:09:45.894Z,3.47
2023-03-30T19:14:49.035Z,3.43
2023-03-30T19:19:50.775Z,1.90
2023-03-30T19:24:52.855Z,1.73
2023-03-30T19:29:56.496Z,1.37
2023-03-30T19:34:58.735Z,1.60
2023-03-30T19:40:01.054Z,1.70
2023-03-30T19:45:05.737Z,1.50
2023-03-30T19:50:09.615Z,1.90
2023-03-30T19:55:12.103Z,1.17
2023-03-30T20:00:17.533Z,1.10
2023-03-30T20:05:20.221Z,1.17
2023-03-30T20:10:24.264Z,0.93
2023-03-30T20:15:27.490Z,1.00
2023-03-30T20:20:29.600Z,1.17
2023-03-30T20:25:31.526Z,0.80
2023-03-30T20:30:37.608Z,1.30
2023-03-30T20:35:39.580Z,0.90
2023-03-30T20:40:41.582Z,1.27
2023-03-30T20:45:45.065Z,1.30
2023-03-30T20:50:47.952Z,1.00
2023-03-30T20:55:50.379Z,1.30
2023-03-30T21:00:54.856Z,1.30
2023-03-30T21:06:01.152Z,1.60
2023-03-30T21:11:04.085Z,1.50
2023-03-30T21:16:08.376Z,1.40
2023-03-30T21:21:10.739Z,2.07
2023-03-30T21:26:13.229Z,1.70
2023-03-30T21:31:16.714Z,1.77
2023-03-30T21:36:19.062Z,1.80
2023-03-30T21:41:21.157Z,1.50
2023-03-30T21:46:26.353Z,2.03
2023-03-30T21:51:30.441Z,2.03
2023-03-30T21:56:32.685Z,1.83
2023-03-30T22:01:36.373Z,2.07
2023-03-30T22:06:38.482Z,1.60
2023-03-30T22:11:40.548Z,2.20
2023-03-30T22:16:43.834Z,1.93
2023-03-30T22:21:45.985Z,2.27
2023-03-30T22:26:48.098Z,1.97
2023-03-30T22:31:51.596Z,1.90
2023-03-30T22:36:54.241Z,2.20
2023-03-30T22:41:56.509Z,2.10
2023-03-30T22:46:59.825Z,1.67
2023-03-30T22:52:02.114Z,1.67
2023-03-30T22:57:04.365Z,1.80
2023-03-30T23:02:07.836Z,1.63
2023-03-30T23:07:10.688Z,1.63
2023-03-30T23:12:12.893Z,1.80
2023-03-30T23:17:16.138Z,1.57
2023-03-30T23:22:18.311Z,1.40
2023-03-30T23:27:21.232Z,1.30
2023-03-30T23:32:24.519Z,1.50
2023-03-30T23:37:26.511Z,1.43
2023-03-30T23:42:28.967Z,1.60
2023-03-30T23:47:32.503Z,1.30
2023-03-30T23:52:34.639Z,1.47
2023-03-30T23:57:36.892Z,1.20
